sensor_id;sensor_type;location;lat;lon;timestamp;pressure;altitude;pressure_sealevel;temperature;humidity
38466;BME280;24244;51.950;5.902;2023-04-05T00:00:31;102423.50;;;5.44;56.33
38466;BME280;24244;51.950;5.902;2023-04-05T00:02:59;102421.91;;;5.42;56.44
38466;BME280;24244;51.950;5.902;2023-04-05T00:05:26;102418.69;;;5.38;56.50
38466;BME280;24244;51.950;5.902;2023-04-05T00:07:57;102430.28;;;5.36;56.36
38466;BME280;24244;51.950;5.902;2023-04-05T00:10:25;102424.50;;;5.31;56.35
38466;BME280;24244;51.950;5.902;2023-04-05T00:12:52;102423.03;;;5.27;56.50
38466;BME280;24244;51.950;5.902;2023-04-05T00:15:18;102424.09;;;5.24;56.46
38466;BME280;24244;51.950;5.902;2023-04-05T00:17:47;102416.50;;;5.20;56.75
38466;BME280;24244;51.950;5.902;2023-04-05T00:20:14;102406.22;;;5.17;56.63
38466;BME280;24244;51.950;5.902;2023-04-05T00:22:42;102415.16;;;5.14;56.57
38466;BME280;24244;51.950;5.902;2023-04-05T00:25:10;102419.84;;;5.10;56.98
38466;BME280;24244;51.950;5.902;2023-04-05T00:27:37;102420.97;;;5.06;57.05
38466;BME280;24244;51.950;5.902;2023-04-05T00:30:05;102426.50;;;5.03;57.10
38466;BME280;24244;51.950;5.902;2023-04-05T00:32:32;102417.84;;;5.01;57.08
38466;BME280;24244;51.950;5.902;2023-04-05T00:35:01;102420.59;;;5.00;57.09
38466;BME280;24244;51.950;5.902;2023-04-05T00:37:27;102420.81;;;4.97;57.07
38466;BME280;24244;51.950;5.902;2023-04-05T00:39:54;102414.16;;;4.91;57.29
38466;BME280;24244;51.950;5.902;2023-04-05T00:42:23;102423.16;;;4.89;57.14
38466;BME280;24244;51.950;5.902;2023-04-05T00:44:50;102414.41;;;4.88;57.41
38466;BME280;24244;51.950;5.902;2023-04-05T00:47:17;102419.97;;;4.84;57.20
38466;BME280;24244;51.950;5.902;2023-04-05T00:49:44;102418.53;;;4.80;57.62
38466;BME280;24244;51.950;5.902;2023-04-05T00:52:14;102411.47;;;4.80;57.64
38466;BME280;24244;51.950;5.902;2023-04-05T00:54:42;102403.56;;;4.80;57.40
38466;BME280;24244;51.950;5.902;2023-04-05T00:57:10;102406.41;;;4.77;57.35
38466;BME280;24244;51.950;5.902;2023-04-05T00:59:37;102399.56;;;4.75;57.63
38466;BME280;24244;51.950;5.902;2023-04-05T01:02:10;102394.50;;;4.71;58.07
38466;BME280;24244;51.950;5.902;2023-04-05T01:04:40;102399.88;;;4.70;57.75
38466;BME280;24244;51.950;5.902;2023-04-05T01:07:23;102401.06;;;4.66;58.30
38466;BME280;24244;51.950;5.902;2023-04-05T01:09:54;102398.44;;;4.66;57.87
38466;BME280;24244;51.950;5.902;2023-04-05T01:12:24;102391.56;;;4.63;58.06
38466;BME280;24244;51.950;5.902;2023-04-05T01:14:56;102404.13;;;4.60;57.89
38466;BME280;24244;51.950;5.902;2023-04-05T01:17:26;102396.31;;;4.58;57.94
38466;BME280;24244;51.950;5.902;2023-04-05T01:20:05;102384.09;;;4.57;58.31
38466;BME280;24244;51.950;5.902;2023-04-05T01:26:01;102383.50;;;4.54;58.08
38466;BME280;24244;51.950;5.902;2023-04-05T01:28:46;102381.81;;;4.53;58.17
38466;BME280;24244;51.950;5.902;2023-04-05T01:31:25;102372.31;;;4.50;58.41
38466;BME280;24244;51.950;5.902;2023-04-05T01:33:58;102373.34;;;4.48;58.06
38466;BME280;24244;51.950;5.902;2023-04-05T01:36:30;102379.59;;;4.47;58.28
38466;BME280;24244;51.950;5.902;2023-04-05T01:39:01;102379.81;;;4.44;58.32
38466;BME280;24244;51.950;5.902;2023-04-05T01:41:30;102376.44;;;4.42;58.37
38466;BME280;24244;51.950;5.902;2023-04-05T01:43:58;102380.00;;;4.41;58.52
38466;BME280;24244;51.950;5.902;2023-04-05T01:46:26;102376.66;;;4.39;58.57
38466;BME280;24244;51.950;5.902;2023-04-05T01:48:53;102376.84;;;4.36;58.34
38466;BME280;24244;51.950;5.902;2023-04-05T01:51:19;102374.66;;;4.29;58.84
38466;BME280;24244;51.950;5.902;2023-04-05T01:53:47;102373.91;;;4.27;58.93
38466;BME280;24244;51.950;5.902;2023-04-05T01:56:14;102372.34;;;4.25;58.82
38466;BME280;24244;51.950;5.902;2023-04-05T01:58:46;102377.72;;;4.23;58.95
38466;BME280;24244;51.950;5.902;2023-04-05T02:01:12;102375.41;;;4.19;59.01
38466;BME280;24244;51.950;5.902;2023-04-05T02:03:40;102371.09;;;4.18;58.68
38466;BME280;24244;51.950;5.902;2023-04-05T02:06:07;102372.22;;;4.14;59.01
38466;BME280;24244;51.950;5.902;2023-04-05T02:08:34;102374.97;;;4.12;59.07
38466;BME280;24244;51.950;5.902;2023-04-05T02:11:01;102367.28;;;4.09;59.01
38466;BME280;24244;51.950;5.902;2023-04-05T02:13:28;102367.50;;;4.06;58.86
38466;BME280;24244;51.950;5.902;2023-04-05T02:15:55;102368.56;;;4.04;59.11
38466;BME280;24244;51.950;5.902;2023-04-05T02:18:22;102359.91;;;4.02;59.11
38466;BME280;24244;51.950;5.902;2023-04-05T02:21:02;102366.97;;;4.01;59.00
38466;BME280;24244;51.950;5.902;2023-04-05T02:23:31;102359.25;;;3.98;58.88
38466;BME280;24244;51.950;5.902;2023-04-05T02:25:58;102358.66;;;3.94;59.42
38466;BME280;24244;51.950;5.902;2023-04-05T02:28:25;102356.44;;;3.88;59.17
38466;BME280;24244;51.950;5.902;2023-04-05T02:30:53;102358.22;;;3.88;59.15
38466;BME280;24244;51.950;5.902;2023-04-05T02:33:20;102360.22;;;3.84;59.56
38466;BME280;24244;51.950;5.902;2023-04-05T02:35:48;102355.78;;;3.85;59.73
38466;BME280;24244;51.950;5.902;2023-04-05T02:38:17;102348.03;;;3.83;59.38
38466;BME280;24244;51.950;5.902;2023-04-05T02:40:45;102338.53;;;3.81;59.48
38466;BME280;24244;51.950;5.902;2023-04-05T02:43:12;102343.91;;;3.79;59.91
38466;BME280;24244;51.950;5.902;2023-04-05T02:45:40;102342.31;;;3.77;59.64
38466;BME280;24244;51.950;5.902;2023-04-05T02:48:06;102345.91;;;3.76;59.58
38466;BME280;24244;51.950;5.902;2023-04-05T02:50:33;102335.59;;;3.73;59.95
38466;BME280;24244;51.950;5.902;2023-04-05T02:53:00;102337.28;;;3.74;60.12
38466;BME280;24244;51.950;5.902;2023-04-05T02:55:28;102341.78;;;3.72;60.05
38466;BME280;24244;51.950;5.902;2023-04-05T02:57:58;102338.31;;;3.71;59.88
38466;BME280;24244;51.950;5.902;2023-04-05T03:00:26;102340.09;;;3.71;59.89
38466;BME280;24244;51.950;5.902;2023-04-05T03:02:54;102340.22;;;3.69;59.62
38466;BME280;24244;51.950;5.902;2023-04-05T03:05:21;102330.66;;;3.68;60.32
38466;BME280;24244;51.950;5.902;2023-04-05T03:07:48;102336.94;;;3.66;59.89
38466;BME280;24244;51.950;5.902;2023-04-05T03:10:18;102331.78;;;3.64;60.45
38466;BME280;24244;51.950;5.902;2023-04-05T03:12:49;102331.88;;;3.63;60.06
38466;BME280;24244;51.950;5.902;2023-04-05T03:15:17;102330.31;;;3.60;60.08
38466;BME280;24244;51.950;5.902;2023-04-05T03:17:43;102330.50;;;3.57;60.38
38466;BME280;24244;51.950;5.902;2023-04-05T03:20:12;102336.59;;;3.58;60.42
38466;BME280;24244;51.950;5.902;2023-04-05T03:22:40;102325.34;;;3.55;60.47
38466;BME280;24244;51.950;5.902;2023-04-05T03:25:08;102318.44;;;3.54;60.28
38466;BME280;24244;51.950;5.902;2023-04-05T03:27:35;102318.53;;;3.53;60.13
38466;BME280;24244;51.950;5.902;2023-04-05T03:30:04;102328.19;;;3.52;60.20
38466;BME280;24244;51.950;5.902;2023-04-05T03:32:31;102326.50;;;3.51;60.42
38466;BME280;24244;51.950;5.902;2023-04-05T03:34:58;102324.06;;;3.48;60.43
38466;BME280;24244;51.950;5.902;2023-04-05T03:37:28;102318.00;;;3.48;60.57
38466;BME280;24244;51.950;5.902;2023-04-05T03:39:55;102314.63;;;3.46;60.68
38466;BME280;24244;51.950;5.902;2023-04-05T03:42:22;102316.41;;;3.45;60.69
38466;BME280;24244;51.950;5.902;2023-04-05T03:44:51;102314.72;;;3.44;60.86
38466;BME280;24244;51.950;5.902;2023-04-05T03:47:20;102313.97;;;3.42;60.94
38466;BME280;24244;51.950;5.902;2023-04-05T03:49:47;102314.91;;;3.41;60.99
38466;BME280;24244;51.950;5.902;2023-04-05T03:52:14;102308.00;;;3.40;60.87
38466;BME280;24244;51.950;5.902;2023-04-05T03:54:40;102308.00;;;3.40;61.09
38466;BME280;24244;51.950;5.902;2023-04-05T03:57:07;102309.78;;;3.40;60.82
38466;BME280;24244;51.950;5.902;2023-04-05T03:59:34;102312.50;;;3.38;60.71
38466;BME280;24244;51.950;5.902;2023-04-05T04:02:01;102312.59;;;3.37;61.24
38466;BME280;24244;51.950;5.902;2023-04-05T04:04:30;102321.50;;;3.34;61.27
38466;BME280;24244;51.950;5.902;2023-04-05T04:06:57;102311.13;;;3.33;61.09
38466;BME280;24244;51.950;5.902;2023-04-05T04:09:23;102314.69;;;3.32;61.18
38466;BME280;24244;51.950;5.902;2023-04-05T04:11:50;102315.53;;;3.32;61.33
38466;BME280;24244;51.950;5.902;2023-04-05T04:14:17;102308.59;;;3.31;61.29
38466;BME280;24244;51.950;5.902;2023-04-05T04:16:44;102311.22;;;3.31;61.64
38466;BME280;24244;51.950;5.902;2023-04-05T04:19:11;102305.97;;;3.31;61.47
38466;BME280;24244;51.950;5.902;2023-04-05T04:21:39;102307.84;;;3.29;61.68
38466;BME280;24244;51.950;5.902;2023-04-05T04:24:10;102300.91;;;3.28;61.46
38466;BME280;24244;51.950;5.902;2023-04-05T04:26:44;102305.22;;;3.29;61.31
38466;BME280;24244;51.950;5.902;2023-04-05T04:29:11;102306.16;;;3.28;61.72
38466;BME280;24244;51.950;5.902;2023-04-05T04:31:38;102307.84;;;3.29;61.55
38466;BME280;24244;51.950;5.902;2023-04-05T04:34:05;102311.31;;;3.30;61.48
38466;BME280;24244;51.950;5.902;2023-04-05T04:36:33;102311.31;;;3.30;61.64
38466;BME280;24244;51.950;5.902;2023-04-05T04:39:03;102306.06;;;3.30;61.52
38466;BME280;24244;51.950;5.902;2023-04-05T04:41:33;102305.22;;;3.29;61.92
38466;BME280;24244;51.950;5.902;2023-04-05T04:44:01;102301.75;;;3.29;61.68
38466;BME280;24244;51.950;5.902;2023-04-05T04:46:29;102306.16;;;3.28;61.54
38466;BME280;24244;51.950;5.902;2023-04-05T04:49:00;102303.00;;;3.23;61.95
38466;BME280;24244;51.950;5.902;2023-04-05T04:51:31;102301.22;;;3.24;62.26
38466;BME280;24244;51.950;5.902;2023-04-05T04:53:58;102298.69;;;3.22;61.94
38466;BME280;24244;51.950;5.902;2023-04-05T04:56:27;102299.63;;;3.21;62.01
38466;BME280;24244;51.950;5.902;2023-04-05T04:58:54;102304.34;;;3.16;62.08
38466;BME280;24244;51.950;5.902;2023-04-05T05:01:22;102304.34;;;3.16;62.22
38466;BME280;24244;51.950;5.902;2023-04-05T05:03:50;102296.78;;;3.11;62.13
38466;BME280;24244;51.950;5.902;2023-04-05T05:06:21;102304.00;;;3.08;62.33
38466;BME280;24244;51.950;5.902;2023-04-05T05:08:50;102293.81;;;3.03;62.76
38466;BME280;24244;51.950;5.902;2023-04-05T05:11:17;102297.38;;;3.02;62.15
38466;BME280;24244;51.950;5.902;2023-04-05T05:13:48;102299.16;;;3.02;62.32
38466;BME280;24244;51.950;5.902;2023-04-05T05:16:18;102294.81;;;3.01;62.42
38466;BME280;24244;51.950;5.902;2023-04-05T05:18:49;102300.09;;;3.01;62.84
38466;BME280;24244;51.950;5.902;2023-04-05T05:21:16;102297.66;;;2.98;63.07
38466;BME280;24244;51.950;5.902;2023-04-05T05:23:43;102304.59;;;2.99;62.98
38466;BME280;24244;51.950;5.902;2023-04-05T05:26:10;102297.53;;;2.99;62.91
38466;BME280;24244;51.950;5.902;2023-04-05T05:28:39;102305.44;;;2.99;62.60
38466;BME280;24244;51.950;5.902;2023-04-05T05:31:07;102300.09;;;3.01;62.81
38466;BME280;24244;51.950;5.902;2023-04-05T05:33:34;102301.03;;;3.00;62.86
38466;BME280;24244;51.950;5.902;2023-04-05T05:36:01;102305.34;;;3.01;62.69
38466;BME280;24244;51.950;5.902;2023-04-05T05:38:29;102301.88;;;3.00;62.83
38466;BME280;24244;51.950;5.902;2023-04-05T05:40:57;102300.84;;;3.03;62.86
38466;BME280;24244;51.950;5.902;2023-04-05T05:43:24;102305.25;;;3.02;63.15
38466;BME280;24244;51.950;5.902;2023-04-05T05:45:51;102298.22;;;3.03;63.06
38466;BME280;24244;51.950;5.902;2023-04-05T05:48:19;102298.00;;;3.06;62.91
38466;BME280;24244;51.950;5.902;2023-04-05T05:50:46;102297.06;;;3.07;62.92
38466;BME280;24244;51.950;5.902;2023-04-05T05:53:14;102299.59;;;3.08;62.97
38466;BME280;24244;51.950;5.902;2023-04-05T05:55:42;102301.28;;;3.09;62.85
38466;BME280;24244;51.950;5.902;2023-04-05T05:58:12;102299.50;;;3.10;63.18
38466;BME280;24244;51.950;5.902;2023-04-05T06:00:39;102299.28;;;3.13;62.92
38466;BME280;24244;51.950;5.902;2023-04-05T06:03:06;102302.66;;;3.15;62.86
38466;BME280;24244;51.950;5.902;2023-04-05T06:05:35;102303.41;;;3.17;62.88
38466;BME280;24244;51.950;5.902;2023-04-05T06:08:02;102293.75;;;3.18;63.13
38466;BME280;24244;51.950;5.902;2023-04-05T06:10:29;102297.00;;;3.21;62.99
38466;BME280;24244;51.950;5.902;2023-04-05T06:12:56;102296.06;;;3.22;62.89
38466;BME280;24244;51.950;5.902;2023-04-05T06:15:23;102298.59;;;3.24;62.88
38466;BME280;24244;51.950;5.902;2023-04-05T06:17:50;102306.16;;;3.28;62.84
38466;BME280;24244;51.950;5.902;2023-04-05T06:20:17;102302.59;;;3.29;62.61
38466;BME280;24244;51.950;5.902;2023-04-05T06:22:46;102305.88;;;3.33;62.89
38466;BME280;24244;51.950;5.902;2023-04-05T06:25:13;102292.59;;;3.34;63.15
38466;BME280;24244;51.950;5.902;2023-04-05T06:27:43;102303.78;;;3.38;62.90
38466;BME280;24244;51.950;5.902;2023-04-05T06:30:11;102302.75;;;3.40;62.89
38466;BME280;24244;51.950;5.902;2023-04-05T06:32:38;102289.38;;;3.43;62.85
38466;BME280;24244;51.950;5.902;2023-04-05T06:35:06;102295.38;;;3.45;62.98
38466;BME280;24244;51.950;5.902;2023-04-05T06:37:34;102298.75;;;3.47;63.06
38466;BME280;24244;51.950;5.902;2023-04-05T06:40:05;102306.41;;;3.50;62.76
38466;BME280;24244;51.950;5.902;2023-04-05T06:42:32;102303.59;;;3.53;62.93
38466;BME280;24244;51.950;5.902;2023-04-05T06:44:59;102309.56;;;3.55;62.50
38466;BME280;24244;51.950;5.902;2023-04-05T06:47:27;102312.00;;;3.59;62.63
38466;BME280;24244;51.950;5.902;2023-04-05T06:49:54;102306.56;;;3.62;62.63
38466;BME280;24244;51.950;5.902;2023-04-05T06:52:21;102313.28;;;3.66;62.76
38466;BME280;24244;51.950;5.902;2023-04-05T06:54:48;102317.38;;;3.70;62.95
38466;BME280;24244;51.950;5.902;2023-04-05T06:57:16;102317.09;;;3.74;62.68
38466;BME280;24244;51.950;5.902;2023-04-05T06:59:43;102312.44;;;3.78;62.47
38466;BME280;24244;51.950;5.902;2023-04-05T07:02:10;102313.94;;;3.82;62.69
38466;BME280;24244;51.950;5.902;2023-04-05T07:04:37;102320.56;;;3.87;62.87
38466;BME280;24244;51.950;5.902;2023-04-05T07:07:04;102311.63;;;3.90;62.65
38466;BME280;24244;51.950;5.902;2023-04-05T07:09:32;102320.03;;;3.95;62.66
38466;BME280;24244;51.950;5.902;2023-04-05T07:11:59;102316.22;;;3.99;62.80
38466;BME280;24244;51.950;5.902;2023-04-05T07:14:30;102318.56;;;4.04;62.38
38466;BME280;24244;51.950;5.902;2023-04-05T07:16:57;102315.59;;;4.08;62.49
38466;BME280;24244;51.950;5.902;2023-04-05T07:19:24;102311.00;;;4.12;62.16
38466;BME280;24244;51.950;5.902;2023-04-05T07:21:51;102307.28;;;4.14;62.01
38466;BME280;24244;51.950;5.902;2023-04-05T07:24:18;102316.66;;;4.18;62.42
38466;BME280;24244;51.950;5.902;2023-04-05T07:26:46;102313.91;;;4.20;62.50
38466;BME280;24244;51.950;5.902;2023-04-05T07:29:12;102312.84;;;4.22;62.45
38466;BME280;24244;51.950;5.902;2023-04-05T07:31:41;102308.25;;;4.26;62.05
38466;BME280;24244;51.950;5.902;2023-04-05T07:34:12;102311.03;;;4.36;62.06
38466;BME280;24244;51.950;5.902;2023-04-05T07:36:39;102308.81;;;4.42;62.06
38466;BME280;24244;51.950;5.902;2023-04-05T07:39:07;102304.91;;;4.48;61.79
38466;BME280;24244;51.950;5.902;2023-04-05T07:41:35;102306.38;;;4.52;61.83
38466;BME280;24244;51.950;5.902;2023-04-05T07:44:02;102303.53;;;4.55;61.70
38466;BME280;24244;51.950;5.902;2023-04-05T07:46:29;102304.16;;;4.58;62.02
38466;BME280;24244;51.950;5.902;2023-04-05T07:48:58;102299.50;;;4.62;61.84
38466;BME280;24244;51.950;5.902;2023-04-05T07:51:25;102311.28;;;4.69;61.73
38466;BME280;24244;51.950;5.902;2023-04-05T07:53:52;102306.53;;;4.74;61.77
38466;BME280;24244;51.950;5.902;2023-04-05T07:56:32;102305.16;;;4.81;61.87
38466;BME280;24244;51.950;5.902;2023-04-05T07:59:01;102301.22;;;4.87;61.56
38466;BME280;24244;51.950;5.902;2023-04-05T08:01:28;102296.44;;;4.92;61.69
38466;BME280;24244;51.950;5.902;2023-04-05T08:03:57;102303.69;;;5.01;61.16
38466;BME280;24244;51.950;5.902;2023-04-05T08:06:24;102301.66;;;5.04;61.37
38466;BME280;24244;51.950;5.902;2023-04-05T08:08:53;102298.47;;;5.12;61.36
38466;BME280;24244;51.950;5.902;2023-04-05T08:11:19;102297.28;;;5.16;61.31
38466;BME280;24244;51.950;5.902;2023-04-05T08:13:47;102302.00;;;5.24;61.06
38466;BME280;24244;51.950;5.902;2023-04-05T08:16:14;102292.69;;;5.31;61.21
38466;BME280;24244;51.950;5.902;2023-04-05T08:18:42;102297.59;;;5.35;61.03
38466;BME280;24244;51.950;5.902;2023-04-05T08:21:10;102302.31;;;5.43;61.02
38466;BME280;24244;51.950;5.902;2023-04-05T08:23:37;102290.59;;;5.47;60.84
38466;BME280;24244;51.950;5.902;2023-04-05T08:26:04;102296.25;;;5.54;61.04
38466;BME280;24244;51.950;5.902;2023-04-05T08:28:33;102293.72;;;5.63;60.68
38466;BME280;24244;51.950;5.902;2023-04-05T08:31:00;102293.03;;;5.72;60.86
38466;BME280;24244;51.950;5.902;2023-04-05T08:33:33;102290.03;;;5.77;60.52
38466;BME280;24244;51.950;5.902;2023-04-05T08:36:04;102286.22;;;5.81;60.49
38466;BME280;24244;51.950;5.902;2023-04-05T08:38:38;102294.53;;;5.87;60.39
38466;BME280;24244;51.950;5.902;2023-04-05T08:41:07;102292.38;;;5.93;60.57
38466;BME280;24244;51.950;5.902;2023-04-05T08:43:46;102294.53;;;5.99;60.54
38466;BME280;24244;51.950;5.902;2023-04-05T08:46:17;102294.06;;;6.05;60.19
38466;BME280;24244;51.950;5.902;2023-04-05T08:48:45;102295.25;;;6.12;60.03
38466;BME280;24244;51.950;5.902;2023-04-05T08:51:12;102284.09;;;6.19;59.84
38466;BME280;24244;51.950;5.902;2023-04-05T08:53:40;102291.41;;;6.27;59.76
38466;BME280;24244;51.950;5.902;2023-04-05T08:56:10;102285.53;;;6.35;59.54
38466;BME280;24244;51.950;5.902;2023-04-05T08:58:47;102288.41;;;6.43;59.35
38466;BME280;24244;51.950;5.902;2023-04-05T09:01:17;102279.25;;;6.47;59.58
38466;BME280;24244;51.950;5.902;2023-04-05T09:03:46;102283.34;;;6.51;59.32
38466;BME280;24244;51.950;5.902;2023-04-05T09:06:16;102283.59;;;6.59;59.12
38466;BME280;24244;51.950;5.902;2023-04-05T09:08:48;102278.78;;;6.64;59.00
38466;BME280;24244;51.950;5.902;2023-04-05T09:11:15;102286.19;;;6.70;58.95
38466;BME280;24244;51.950;5.902;2023-04-05T09:13:44;102276.94;;;6.76;58.93
38466;BME280;24244;51.950;5.902;2023-04-05T09:16:12;102277.16;;;6.84;58.30
38466;BME280;24244;51.950;5.902;2023-04-05T09:18:41;102281.94;;;6.90;58.52
38466;BME280;24244;51.950;5.902;2023-04-05T09:21:10;102279.78;;;6.95;58.47
38466;BME280;24244;51.950;5.902;2023-04-05T09:23:52;102282.75;;;7.01;58.08
38466;BME280;24244;51.950;5.902;2023-04-05T09:26:20;102279.72;;;7.06;58.20
38466;BME280;24244;51.950;5.902;2023-04-05T09:28:48;102280.78;;;7.15;57.97
38466;BME280;24244;51.950;5.902;2023-04-05T09:31:32;102281.09;;;7.21;57.73
38466;BME280;24244;51.950;5.902;2023-04-05T09:34:01;102277.94;;;7.27;57.51
38466;BME280;24244;51.950;5.902;2023-04-05T09:36:32;102269.63;;;7.32;57.57
38466;BME280;24244;51.950;5.902;2023-04-05T09:39:10;102266.50;;;7.38;57.46
38466;BME280;24244;51.950;5.902;2023-04-05T09:41:39;102261.38;;;7.46;57.40
38466;BME280;24244;51.950;5.902;2023-04-05T09:44:06;102262.69;;;7.52;57.35
38466;BME280;24244;51.950;5.902;2023-04-05T09:46:37;102268.16;;;7.60;57.03
38466;BME280;24244;51.950;5.902;2023-04-05T09:49:05;102268.47;;;7.66;57.09
38466;BME280;24244;51.950;5.902;2023-04-05T09:51:36;102260.13;;;7.71;56.89
38466;BME280;24244;51.950;5.902;2023-04-05T09:54:15;102260.56;;;7.76;57.16
38466;BME280;24244;51.950;5.902;2023-04-05T09:56:53;102265.09;;;7.85;56.60
38466;BME280;24244;51.950;5.902;2023-04-05T09:59:28;102260.94;;;7.92;56.69
38466;BME280;24244;51.950;5.902;2023-04-05T10:01:58;102257.75;;;7.98;56.21
38466;BME280;24244;51.950;5.902;2023-04-05T10:04:38;102256.97;;;8.07;56.23
38466;BME280;24244;51.950;5.902;2023-04-05T10:07:11;102250.31;;;8.13;56.10
38466;BME280;24244;51.950;5.902;2023-04-05T10:09:45;102253.97;;;8.21;55.87
38466;BME280;24244;51.950;5.902;2023-04-05T10:12:21;102253.28;;;8.29;55.65
38466;BME280;24244;51.950;5.902;2023-04-05T10:14:58;102249.16;;;8.36;55.48
38466;BME280;24244;51.950;5.902;2023-04-05T10:17:44;102245.00;;;8.43;55.60
38466;BME280;24244;51.950;5.902;2023-04-05T10:20:17;102234.41;;;8.53;54.98
38466;BME280;24244;51.950;5.902;2023-04-05T10:23:00;102238.47;;;8.57;54.74
38466;BME280;24244;51.950;5.902;2023-04-05T10:25:42;102233.47;;;8.63;54.65
38466;BME280;24244;51.950;5.902;2023-04-05T10:28:29;102232.06;;;8.69;54.50
38466;BME280;24244;51.950;5.902;2023-04-05T10:31:07;102230.66;;;8.75;54.40
38466;BME280;24244;51.950;5.902;2023-04-05T10:33:44;102224.97;;;8.79;54.20
38466;BME280;24244;51.950;5.902;2023-04-05T10:36:18;102219.25;;;8.84;54.09
38466;BME280;24244;51.950;5.902;2023-04-05T10:38:59;102214.34;;;8.89;54.37
38466;BME280;24244;51.950;5.902;2023-04-05T10:41:39;102216.31;;;8.96;54.05
38466;BME280;24244;51.950;5.902;2023-04-05T10:44:13;102219.41;;;9.01;54.45
38466;BME280;24244;51.950;5.902;2023-04-05T10:46:55;102212.56;;;9.09;53.84
38466;BME280;24244;51.950;5.902;2023-04-05T10:49:30;102206.53;;;9.16;53.80
38466;BME280;24244;51.950;5.902;2023-04-05T10:51:59;102201.50;;;9.23;53.83
38466;BME280;24244;51.950;5.902;2023-04-05T10:54:31;102207.34;;;9.26;53.62
38466;BME280;24244;51.950;5.902;2023-04-05T10:57:06;102201.91;;;9.28;53.43
38466;BME280;24244;51.950;5.902;2023-04-05T10:59:40;102197.13;;;9.31;53.13
38466;BME280;24244;51.950;5.902;2023-04-05T11:02:09;102193.09;;;9.37;53.22
38466;BME280;24244;51.950;5.902;2023-04-05T11:04:44;102192.53;;;9.43;53.19
38466;BME280;24244;51.950;5.902;2023-04-05T11:07:14;102182.31;;;9.48;53.33
38466;BME280;24244;51.950;5.902;2023-04-05T11:10:00;102194.00;;;9.55;53.38
38466;BME280;24244;51.950;5.902;2023-04-05T11:13:06;102182.94;;;9.60;53.15
38466;BME280;24244;51.950;5.902;2023-04-05T11:15:34;102182.53;;;9.64;52.99
38466;BME280;24244;51.950;5.902;2023-04-05T11:18:04;102182.66;;;9.72;52.78
38466;BME280;24244;51.950;5.902;2023-04-05T11:20:49;102175.91;;;9.78;52.68
38466;BME280;24244;51.950;5.902;2023-04-05T11:23:32;102175.31;;;9.84;52.65
38466;BME280;24244;51.950;5.902;2023-04-05T11:26:23;102170.13;;;9.92;51.78
38466;BME280;24244;51.950;5.902;2023-04-05T11:28:59;102176.38;;;10.01;51.83
38466;BME280;24244;51.950;5.902;2023-04-05T11:31:28;102167.38;;;10.02;50.71
38466;BME280;24244;51.950;5.902;2023-04-05T11:33:57;102170.75;;;10.04;50.87
38466;BME280;24244;51.950;5.902;2023-04-05T11:36:46;102165.38;;;10.13;51.07
38466;BME280;24244;51.950;5.902;2023-04-05T11:39:27;102161.03;;;10.22;51.17
38466;BME280;24244;51.950;5.902;2023-04-05T11:42:05;102159.47;;;10.29;50.94
38466;BME280;24244;51.950;5.902;2023-04-05T11:44:44;102151.56;;;10.37;50.87
38466;BME280;24244;51.950;5.902;2023-04-05T11:47:16;102153.44;;;10.45;50.76
38466;BME280;24244;51.950;5.902;2023-04-05T11:49:53;102142.66;;;10.46;50.39
38466;BME280;24244;51.950;5.902;2023-04-05T11:52:25;102147.38;;;10.52;50.36
38466;BME280;24244;51.950;5.902;2023-04-05T11:54:57;102139.81;;;10.57;50.39
38466;BME280;24244;51.950;5.902;2023-04-05T11:57:35;102131.91;;;10.66;50.35
38466;BME280;24244;51.950;5.902;2023-04-05T12:00:09;102132.97;;;10.73;49.99
38466;BME280;24244;51.950;5.902;2023-04-05T12:02:41;102130.28;;;10.73;48.55
38466;BME280;24244;51.950;5.902;2023-04-05T12:05:11;102124.66;;;10.76;49.49
38466;BME280;24244;51.950;5.902;2023-04-05T12:07:53;102132.69;;;10.84;49.41
38466;BME280;24244;51.950;5.902;2023-04-05T12:10:22;102130.25;;;10.90;49.68
38466;BME280;24244;51.950;5.902;2023-04-05T12:13:01;102125.16;;;10.97;49.50
38466;BME280;24244;51.950;5.902;2023-04-05T12:15:36;102120.38;;;11.01;49.47
38466;BME280;24244;51.950;5.902;2023-04-05T12:18:11;102124.38;;;11.05;49.10
38466;BME280;24244;51.950;5.902;2023-04-05T12:20:40;102114.09;;;11.10;49.28
38466;BME280;24244;51.950;5.902;2023-04-05T12:23:09;102111.63;;;11.16;49.00
38466;BME280;24244;51.950;5.902;2023-04-05T12:25:37;102109.03;;;11.24;49.28
38466;BME280;24244;51.950;5.902;2023-04-05T12:28:10;102111.38;;;11.27;49.18
38466;BME280;24244;51.950;5.902;2023-04-05T12:30:47;102112.06;;;11.29;48.69
38466;BME280;24244;51.950;5.902;2023-04-05T12:33:24;102106.75;;;11.29;48.65
38466;BME280;24244;51.950;5.902;2023-04-05T12:35:53;102103.06;;;11.30;48.86
38466;BME280;24244;51.950;5.902;2023-04-05T12:38:37;102099.06;;;11.26;48.13
38466;BME280;24244;51.950;5.902;2023-04-05T12:41:26;102102.91;;;11.32;48.25
38466;BME280;24244;51.950;5.902;2023-04-05T12:43:57;102093.78;;;11.34;48.21
38466;BME280;24244;51.950;5.902;2023-04-05T12:46:37;102094.00;;;11.41;47.93
38466;BME280;24244;51.950;5.902;2023-04-05T12:49:05;102079.03;;;11.48;47.49
38466;BME280;24244;51.950;5.902;2023-04-05T12:51:36;102083.72;;;11.54;48.14
38466;BME280;24244;51.950;5.902;2023-04-05T12:54:06;102067.09;;;11.60;48.10
38466;BME280;24244;51.950;5.902;2023-04-05T12:56:39;102067.28;;;11.67;47.80
38466;BME280;24244;51.950;5.902;2023-04-05T12:59:10;102070.31;;;11.72;47.64
38466;BME280;24244;51.950;5.902;2023-04-05T13:01:43;102063.69;;;11.76;48.17
38466;BME280;24244;51.950;5.902;2023-04-05T13:04:11;102056.88;;;11.82;48.13
38466;BME280;24244;51.950;5.902;2023-04-05T13:06:43;102064.41;;;11.86;47.88
38466;BME280;24244;51.950;5.902;2023-04-05T13:09:13;102060.25;;;11.92;48.11
38466;BME280;24244;51.950;5.902;2023-04-05T13:11:42;102063.25;;;11.97;48.22
38466;BME280;24244;51.950;5.902;2023-04-05T13:14:19;102061.09;;;12.00;47.82
38466;BME280;24244;51.950;5.902;2023-04-05T13:16:52;102050.25;;;12.02;47.41
38466;BME280;24244;51.950;5.902;2023-04-05T13:19:19;102047.28;;;12.05;47.56